createdAt,value
2023-04-04T00:02:21.092Z,99780.97
2023-04-04T00:04:49.550Z,99758.84
2023-04-04T00:07:19.517Z,99760.69
2023-04-04T00:09:48.052Z,99728.50
2023-04-04T00:12:16.452Z,99713.25
2023-04-04T00:14:45.031Z,99724.44
2023-04-04T00:17:13.376Z,99730.09
2023-04-04T00:19:41.742Z,99733.38
2023-04-04T00:22:10.124Z,99714.06
2023-04-04T00:24:39.922Z,99700.88
2023-04-04T00:27:08.241Z,99697.91
2023-04-04T00:29:37.595Z,99712.34
2023-04-04T00:32:06.067Z,99699.81
2023-04-04T00:34:36.538Z,99676.88
2023-04-04T00:37:07.521Z,99688.63
2023-04-04T00:39:35.895Z,99693.50
2023-04-04T00:42:06.421Z,99662.75
2023-04-04T00:44:35.792Z,99652.06
2023-04-04T00:47:05.591Z,99666.97
2023-04-04T00:49:34.717Z,99644.06
2023-04-04T00:52:03.267Z,99634.31
2023-04-04T00:54:32.087Z,99657.88
2023-04-04T00:57:00.573Z,99649.41
2023-04-04T00:59:30.570Z,99628.66
2023-04-04T01:02:00.204Z,99629.16
2023-04-04T01:04:31.849Z,99628.50
2023-04-04T01:07:04.846Z,99621.13
2023-04-04T01:09:34.598Z,99603.72
2023-04-04T01:12:05.197Z,99614.53
2023-04-04T01:14:36.864Z,99600.41
2023-04-04T01:17:07.675Z,99597.75
2023-04-04T01:19:40.430Z,99597.44
2023-04-04T01:22:11.349Z,99585.81
2023-04-04T01:24:46.694Z,99588.47
2023-04-04T01:27:17.090Z,99594.28
2023-04-04T01:29:45.840Z,99587.06
2023-04-04T01:32:28.225Z,99583.47
2023-04-04T01:35:04.297Z,99586.59
2023-04-04T01:37:38.032Z,99584.13
2023-04-04T01:40:13.953Z,99598.88
2023-04-04T01:42:46.131Z,99573.41
2023-04-04T01:45:15.037Z,99574.81
2023-04-04T01:47:44.615Z,99567.13
2023-04-04T01:50:13.716Z,99561.63
2023-04-04T01:52:42.542Z,99569.16
2023-04-04T01:55:11.863Z,99542.47
2023-04-04T01:57:40.741Z,99517.50
2023-04-04T02:00:12.357Z,99529.47
2023-04-04T02:02:41.468Z,99504.34
2023-04-04T02:05:10.624Z,99493.81
2023-04-04T02:07:42.361Z,99490.03
2023-04-04T02:10:11.379Z,99468.38
2023-04-04T02:12:40.190Z,99469.00
2023-04-04T02:15:11.651Z,99461.63
2023-04-04T02:17:42.226Z,99453.94
2023-04-04T02:20:13.110Z,99481.56
2023-04-04T02:22:47.833Z,99446.53
2023-04-04T02:25:17.886Z,99453.47
2023-04-04T02:27:46.298Z,99444.66
2023-04-04T02:30:17.376Z,99433.34
2023-04-04T02:32:47.414Z,99441.34
2023-04-04T02:35:18.139Z,99426.28
2023-04-04T02:37:48.258Z,99436.31
2023-04-04T02:40:17.724Z,99454.88
2023-04-04T02:42:46.683Z,99431.94
2023-04-04T02:45:17.785Z,99454.25
2023-04-04T02:47:54.703Z,99416.06
2023-04-04T02:50:24.196Z,99406.16
2023-04-04T02:52:55.495Z,99417.81
2023-04-04T02:55:25.241Z,99401.59
2023-04-04T02:57:55.397Z,99392.34
2023-04-04T03:00:33.279Z,99396.13
2023-04-04T03:03:01.854Z,99429.13
2023-04-04T03:05:32.012Z,99408.53
2023-04-04T03:08:01.234Z,99416.38
2023-04-04T03:10:31.358Z,99383.69
2023-04-04T03:13:00.243Z,99382.75
2023-04-04T03:15:31.032Z,99441.66
2023-04-04T03:18:00.460Z,99396.25
2023-04-04T03:20:29.291Z,99407.41
2023-04-04T03:22:57.923Z,99397.19
2023-04-04T03:25:26.814Z,99405.38
2023-04-04T03:27:55.514Z,99383.84
2023-04-04T03:30:24.438Z,99385.91
2023-04-04T03:32:55.667Z,99380.56
2023-04-04T03:35:24.676Z,99388.25
2023-04-04T03:37:55.041Z,99398.00
2023-04-04T03:40:24.484Z,99397.06
2023-04-04T03:42:52.802Z,99385.28
2023-04-04T03:45:21.973Z,99403.34
2023-04-04T03:47:50.727Z,99418.41
2023-04-04T03:50:21.347Z,99410.53
2023-04-04T03:52:50.490Z,99396.84
2023-04-04T03:55:19.621Z,99411.78
2023-04-04T03:57:48.897Z,99381.75
2023-04-04T04:00:18.025Z,99419.50
2023-04-04T04:02:47.304Z,99393.09
2023-04-04T04:05:16.341Z,99421.06
2023-04-04T04:07:47.067Z,99406.59
2023-04-04T04:10:17.651Z,99409.25
2023-04-04T04:13:01.177Z,99425.47
2023-04-04T04:15:30.316Z,99393.41
2023-04-04T04:17:59.483Z,99398.09
2023-04-04T04:20:28.746Z,99408.63
2023-04-04T04:22:59.009Z,99427.66
2023-04-04T04:25:27.614Z,99387.88
2023-04-04T04:27:58.418Z,99360.38
2023-04-04T04:30:27.362Z,99378.91
2023-04-04T04:32:56.534Z,99359.72
2023-04-04T04:35:27.732Z,99344.63
2023-04-04T04:38:00.147Z,99330.75
2023-04-04T04:40:29.469Z,99323.13
2023-04-04T04:42:59.116Z,99323.47
2023-04-04T04:45:29.880Z,99299.72
2023-04-04T04:47:59.780Z,99314.94
2023-04-04T04:50:29.606Z,99320.63
2023-04-04T04:53:02.622Z,99314.66
2023-04-04T04:55:39.557Z,99317.47
2023-04-04T04:58:08.150Z,99337.16
2023-04-04T05:00:36.772Z,99369.56
2023-04-04T05:03:07.057Z,99367.06
2023-04-04T05:05:36.653Z,99376.84
2023-04-04T05:08:08.673Z,99357.94
2023-04-04T05:10:39.501Z,99406.03
2023-04-04T05:13:10.468Z,99417.34
2023-04-04T05:15:39.633Z,99398.16
2023-04-04T05:18:08.662Z,99412.44
2023-04-04T05:20:39.030Z,99432.28
2023-04-04T05:23:09.344Z,99424.09
2023-04-04T05:25:40.582Z,99445.66
2023-04-04T05:28:09.740Z,99440.16
2023-04-04T05:30:39.516Z,99439.25
2023-04-04T05:33:08.454Z,99451.78
2023-04-04T05:35:38.353Z,99443.13
2023-04-04T05:38:09.464Z,99442.16
2023-04-04T05:40:38.398Z,99419.34
2023-04-04T05:43:07.478Z,99428.78
2023-04-04T05:45:35.913Z,99424.09
2023-04-04T05:48:05.345Z,99421.59
2023-04-04T05:50:33.792Z,99424.41
2023-04-04T05:53:03.053Z,99419.25
2023-04-04T05:55:32.785Z,99430.75
2023-04-04T05:58:01.500Z,99432.31
2023-04-04T06:00:29.994Z,99444.28
2023-04-04T06:02:58.871Z,99441.16
2023-04-04T06:05:27.386Z,99458.75
2023-04-04T06:07:55.758Z,99443.03
2023-04-04T06:10:24.507Z,99448.25
2023-04-04T06:12:54.288Z,99424.06
2023-04-04T06:15:22.650Z,99416.50
2023-04-04T06:17:51.051Z,99418.53
2023-04-04T06:20:22.715Z,99427.81
2023-04-04T06:22:51.055Z,99422.59
2023-04-04T06:25:19.707Z,99440.03
2023-04-04T06:27:48.053Z,99442.88
2023-04-04T06:30:19.282Z,99449.13
2023-04-04T06:32:47.695Z,99459.84
2023-04-04T06:35:18.202Z,99425.41
2023-04-04T06:37:48.381Z,99430.09
2023-04-04T06:40:17.926Z,99414.88
2023-04-04T06:42:52.416Z,99410.75
2023-04-04T06:45:22.161Z,99399.44
2023-04-04T06:47:51.941Z,99384.97
2023-04-04T06:50:21.181Z,99373.66
2023-04-04T06:52:50.078Z,99354.34
2023-04-04T06:55:18.959Z,99343.00
2023-04-04T06:57:47.442Z,99347.06
2023-04-04T07:00:17.004Z,99337.00
2023-04-04T07:02:47.009Z,99323.41
2023-04-04T07:05:18.089Z,99318.72
2023-04-04T07:07:48.513Z,99330.47
2023-04-04T07:10:16.973Z,99340.56
2023-04-04T07:12:46.193Z,99362.56
2023-04-04T07:15:14.629Z,99367.63
2023-04-04T07:17:43.021Z,99343.47
2023-04-04T07:20:13.748Z,99352.78
2023-04-04T07:22:44.496Z,99341.13
2023-04-04T07:25:14.116Z,99354.38
2023-04-04T07:27:42.614Z,99330.03
2023-04-04T07:30:12.371Z,99359.41
2023-04-04T07:32:40.990Z,99341.16
2023-04-04T07:35:10.305Z,99326.78
2023-04-04T07:37:42.268Z,99323.63
2023-04-04T07:40:11.930Z,99323.09
2023-04-04T07:42:45.775Z,99315.22
2023-04-04T07:45:14.324Z,99300.81
2023-04-04T07:47:45.386Z,99292.22
2023-04-04T07:50:14.147Z,99300.75
2023-04-04T07:52:44.169Z,99334.16
2023-04-04T07:55:13.354Z,99338.41
2023-04-04T07:57:42.582Z,99344.88
2023-04-04T08:00:12.007Z,99347.06
2023-04-04T08:02:41.454Z,99317.69
2023-04-04T08:05:10.924Z,99310.94
2023-04-04T08:07:39.347Z,99301.34
2023-04-04T08:10:10.839Z,99319.81
2023-04-04T08:12:39.994Z,99289.97
2023-04-04T08:15:09.112Z,99291.84
2023-04-04T08:17:38.637Z,99312.41
2023-04-04T08:20:08.230Z,99269.16
2023-04-04T08:22:36.542Z,99286.25
2023-04-04T08:25:05.890Z,99307.34
2023-04-04T08:27:35.699Z,99299.19
2023-04-04T08:30:04.992Z,99294.56
2023-04-04T08:32:33.524Z,99309.44
2023-04-04T08:35:03.780Z,99299.94
2023-04-04T08:37:32.299Z,99306.31
2023-04-04T08:40:00.701Z,99280.66
2023-04-04T08:42:30.007Z,99280.13
2023-04-04T08:45:04.402Z,99289.44
2023-04-04T08:47:35.851Z,99306.31
2023-04-04T08:50:06.806Z,99286.59
2023-04-04T08:52:36.523Z,99291.00
2023-04-04T08:55:06.746Z,99291.63
2023-04-04T08:57:35.831Z,99273.19
2023-04-04T09:00:07.406Z,99268.47
2023-04-04T09:02:41.511Z,99291.84
2023-04-04T09:05:11.014Z,99305.22
2023-04-04T09:07:40.038Z,99319.44
2023-04-04T09:10:12.906Z,99326.53
2023-04-04T09:12:43.894Z,99310.94
2023-04-04T09:15:14.655Z,99310.22
2023-04-04T09:17:43.163Z,99340.81
2023-04-04T09:23:29.346Z,99315.28
2023-04-04T09:28:29.608Z,99305.00
2023-04-04T09:31:02.396Z,99310.69
2023-04-04T09:33:32.169Z,99326.00
2023-04-04T09:36:03.693Z,99318.19
2023-04-04T09:38:32.568Z,99324.44
2023-04-04T09:41:01.202Z,99330.38
2023-04-04T09:43:32.319Z,99317.00
2023-04-04T09:46:05.849Z,99320.66
2023-04-04T09:48:37.149Z,99323.75
2023-04-04T09:51:07.002Z,99322.97
2023-04-04T09:53:39.987Z,99317.53
2023-04-04T09:56:09.236Z,99313.63
2023-04-04T09:58:46.404Z,99311.94
2023-04-04T10:01:22.871Z,99328.59
2023-04-04T10:03:53.953Z,99312.84
2023-04-04T10:06:22.692Z,99316.50
2023-04-04T10:08:51.696Z,99321.50
2023-04-04T10:11:35.766Z,99314.72
2023-04-04T10:14:05.538Z,99305.91
2023-04-04T10:16:37.987Z,99315.56
2023-04-04T10:19:08.840Z,99311.47
2023-04-04T10:21:37.415Z,99310.78
2023-04-04T10:24:10.199Z,99312.72
2023-04-04T10:26:38.815Z,99304.47
2023-04-04T10:29:07.206Z,99315.31
2023-04-04T10:31:43.202Z,99305.41
2023-04-04T10:34:16.477Z,99302.03
2023-04-04T10:36:47.746Z,99310.94
2023-04-04T10:39:19.305Z,99310.13
2023-04-04T10:41:50.485Z,99316.63
2023-04-04T10:44:25.434Z,99324.13
2023-04-04T10:46:56.723Z,99327.81
2023-04-04T10:49:25.757Z,99327.13
2023-04-04T10:51:57.433Z,99328.59
2023-04-04T10:54:29.293Z,99333.84
2023-04-04T10:57:02.294Z,99329.81
2023-04-04T10:59:31.140Z,99327.59
2023-04-04T11:02:03.307Z,99330.13
2023-04-04T11:04:35.715Z,99327.78
2023-04-04T11:07:21.862Z,99338.03
2023-04-04T11:09:57.830Z,99338.16
2023-04-04T11:12:30.553Z,99340.06
2023-04-04T11:15:11.074Z,99336.59
2023-04-04T11:17:45.366Z,99331.94
2023-04-04T11:20:18.310Z,99331.53
2023-04-04T11:22:47.157Z,99348.63
2023-04-04T11:25:33.775Z,99326.88
2023-04-04T11:28:10.836Z,99324.94
2023-04-04T11:30:44.953Z,99332.78
2023-04-04T11:33:15.583Z,99326.31
2023-04-04T11:35:49.010Z,99323.34
2023-04-04T11:38:17.833Z,99320.88
2023-04-04T11:40:56.487Z,99324.56
2023-04-04T11:43:25.733Z,99321.09
2023-04-04T11:45:55.575Z,99307.72
2023-04-04T11:48:25.437Z,99310.59
2023-04-04T11:50:54.938Z,99312.16
2023-04-04T11:53:23.291Z,99313.03
2023-04-04T11:55:53.073Z,99304.81
2023-04-04T11:58:21.521Z,99308.69
2023-04-04T12:00:50.767Z,99310.59
2023-04-04T12:03:19.369Z,99316.19
2023-04-04T12:05:51.050Z,99300.44
2023-04-04T12:08:19.550Z,99314.38
2023-04-04T12:10:47.844Z,99326.00
2023-04-04T12:13:16.547Z,99317.75
2023-04-04T12:15:45.299Z,99319.53
2023-04-04T12:18:23.292Z,99314.63
2023-04-04T12:20:54.312Z,99330.00
2023-04-04T12:23:23.853Z,99310.25
2023-04-04T12:25:55.017Z,99305.16
2023-04-04T12:28:24.052Z,99301.91
2023-04-04T12:30:53.716Z,99302.75
2023-04-04T12:33:22.996Z,99301.72
2023-04-04T12:35:56.562Z,99300.97
2023-04-04T12:38:25.026Z,99302.47
2023-04-04T12:40:53.723Z,99296.78
2023-04-04T12:43:22.140Z,99283.19
2023-04-04T12:45:52.695Z,99273.66
2023-04-04T12:48:22.936Z,99271.88
2023-04-04T12:50:56.920Z,99260.75
2023-04-04T12:53:29.555Z,99271.22
2023-04-04T12:56:02.868Z,99265.56
2023-04-04T12:58:34.844Z,99258.75
2023-04-04T13:01:05.339Z,99261.59
2023-04-04T13:03:37.909Z,99261.75
2023-04-04T13:06:15.291Z,99263.94
2023-04-04T13:08:54.377Z,99259.63
2023-04-04T13:11:23.872Z,99262.34
2023-04-04T13:14:02.772Z,99266.19
2023-04-04T13:16:33.171Z,99263.69
2023-04-04T13:19:01.739Z,99268.22
2023-04-04T13:21:32.554Z,99256.66
2023-04-04T13:24:04.210Z,99265.94
2023-04-04T13:26:32.628Z,99269.94
2023-04-04T13:29:00.937Z,99266.13
2023-04-04T13:31:29.395Z,99272.50
2023-04-04T13:33:57.812Z,99276.53
2023-04-04T13:36:28.470Z,99278.16
2023-04-04T13:38:58.387Z,99280.56
2023-04-04T13:41:26.720Z,99288.59
2023-04-04T13:43:56.681Z,99280.56
2023-04-04T13:46:25.900Z,99275.88
2023-04-04T13:48:54.251Z,99282.06
2023-04-04T13:51:24.529Z,99284.75
2023-04-04T13:53:52.872Z,99291.31
2023-04-04T13:56:23.291Z,99289.88
2023-04-04T13:58:52.490Z,99289.19
2023-04-04T14:01:22.664Z,99299.31
2023-04-04T14:03:51.414Z,99297.78
2023-04-04T14:06:20.080Z,99306.41
2023-04-04T14:08:48.437Z,99309.03
2023-04-04T14:11:17.292Z,99309.59
2023-04-04T14:13:47.397Z,99305.38
2023-04-04T14:16:16.369Z,99305.34
2023-04-04T14:18:45.182Z,99313.19
2023-04-04T14:21:13.674Z,99315.03
2023-04-04T14:23:42.076Z,99317.16
2023-04-04T14:26:10.556Z,99309.00
2023-04-04T14:28:39.092Z,99300.63
2023-04-04T14:31:08.876Z,99311.34
2023-04-04T14:33:37.390Z,99305.56
2023-04-04T14:36:06.419Z,99313.03
2023-04-04T14:38:34.870Z,99307.00
2023-04-04T14:41:03.496Z,99303.91
2023-04-04T14:43:32.135Z,99312.28
2023-04-04T14:46:00.670Z,99307.34
2023-04-04T14:48:30.520Z,99313.63
2023-04-04T14:51:00.598Z,99310.38
2023-04-04T14:53:29.051Z,99308.16
2023-04-04T14:55:57.445Z,99303.44
2023-04-04T14:58:25.885Z,99294.06
2023-04-04T15:00:54.418Z,99301.31
2023-04-04T15:03:22.946Z,99302.22
2023-04-04T15:05:52.990Z,99298.44
2023-04-04T15:08:21.561Z,99295.19
2023-04-04T15:10:50.215Z,99298.09
2023-04-04T15:13:18.577Z,99316.88
2023-04-04T15:15:47.078Z,99305.91
2023-04-04T15:18:15.876Z,99312.38
2023-04-04T15:20:44.508Z,99308.34
2023-04-04T15:23:14.406Z,99307.91
2023-04-04T15:25:42.779Z,99308.81
2023-04-04T15:28:11.152Z,99305.22
2023-04-04T15:30:40.303Z,99306.56
2023-04-04T15:33:09.681Z,99302.78
2023-04-04T15:35:38.289Z,99290.72
2023-04-04T15:38:06.878Z,99298.75
2023-04-04T15:40:36.970Z,99303.13
2023-04-04T15:43:05.542Z,99300.78
2023-04-04T15:45:33.929Z,99303.56
2023-04-04T15:48:03.141Z,99298.31
2023-04-04T15:50:31.533Z,99295.41
2023-04-04T15:53:00.237Z,99300.44
2023-04-04T15:55:29.073Z,99300.00
2023-04-04T15:57:58.944Z,99290.13
2023-04-04T16:00:29.284Z,99298.75
2023-04-04T16:02:59.043Z,99288.38
2023-04-04T16:05:28.494Z,99297.09
2023-04-04T16:07:57.001Z,99296.09
2023-04-04T16:10:25.379Z,99292.59
2023-04-04T16:12:53.796Z,99295.63
2023-04-04T16:15:23.801Z,99295.75
2023-04-04T16:17:53.942Z,99311.81
2023-04-04T16:20:23.728Z,99298.72
2023-04-04T16:22:54.001Z,99306.81
2023-04-04T16:25:23.422Z,99310.72
2023-04-04T16:27:51.969Z,99310.81
2023-04-04T16:30:20.537Z,99305.44
2023-04-04T16:32:51.029Z,99315.13
2023-04-04T16:35:19.714Z,99322.13
2023-04-04T16:37:48.248Z,99322.34
2023-04-04T16:40:16.725Z,99314.00
2023-04-04T16:42:45.057Z,99321.50
2023-04-04T16:45:13.841Z,99318.72
2023-04-04T16:47:42.235Z,99314.34
2023-04-04T16:50:12.929Z,99329.03
2023-04-04T16:52:41.469Z,99327.63
2023-04-04T16:55:10.528Z,99334.94
2023-04-04T16:57:38.878Z,99341.59
2023-04-04T17:00:10.151Z,99350.44
2023-04-04T17:02:45.345Z,99349.22
2023-04-04T17:05:15.913Z,99348.19
2023-04-04T17:07:44.277Z,99353.66
2023-04-04T17:10:13.521Z,99348.63
2023-04-04T17:12:42.015Z,99351.91
2023-04-04T17:15:11.136Z,99355.22
2023-04-04T17:17:39.645Z,99359.41
2023-04-04T17:20:08.864Z,99360.06
2023-04-04T17:22:38.697Z,99355.47
2023-04-04T17:25:08.938Z,99364.13
2023-04-04T17:27:37.507Z,99369.00
2023-04-04T17:30:08.513Z,99369.38
2023-04-04T17:32:37.404Z,99374.50
2023-04-04T17:35:07.022Z,99378.94
2023-04-04T17:37:35.393Z,99388.28
2023-04-04T17:40:05.770Z,99373.84
2023-04-04T17:42:34.628Z,99375.44
2023-04-04T17:45:03.023Z,99378.34
2023-04-04T17:47:31.469Z,99378.50
2023-04-04T17:49:59.837Z,99386.22
2023-04-04T17:52:28.287Z,99395.66
2023-04-04T17:54:56.626Z,99409.63
2023-04-04T17:57:26.535Z,99417.63
2023-04-04T17:59:55.088Z,99415.91
2023-04-04T18:02:23.462Z,99428.13
2023-04-04T18:04:52.691Z,99424.97
2023-04-04T18:07:21.254Z,99429.03
2023-04-04T18:09:49.621Z,99440.63
2023-04-04T18:12:18.284Z,99450.50
2023-04-04T18:14:48.284Z,99456.94
2023-04-04T18:17:16.812Z,99456.94
2023-04-04T18:19:46.634Z,99459.38
2023-04-04T18:22:15.038Z,99465.50
2023-04-04T18:24:43.600Z,99459.81
2023-04-04T18:27:12.250Z,99462.03
2023-04-04T18:29:41.466Z,99451.44
2023-04-04T18:32:11.278Z,99451.72
2023-04-04T18:34:39.832Z,99452.91
2023-04-04T18:37:08.252Z,99447.66
2023-04-04T18:39:36.650Z,99468.97
2023-04-04T18:42:05.398Z,99443.06
2023-04-04T18:44:33.986Z,99442.34
2023-04-04T18:47:05.326Z,99442.09
2023-04-04T18:49:35.720Z,99441.94
2023-04-04T18:52:04.108Z,99442.34
2023-04-04T18:54:32.686Z,99455.88
2023-04-04T18:57:01.085Z,99457.81
2023-04-04T18:59:30.908Z,99469.53
2023-04-04T19:02:00.978Z,99473.16
2023-04-04T19:04:30.659Z,99471.75
2023-04-04T19:07:06.190Z,99470.31
2023-04-04T19:09:35.203Z,99459.41
2023-04-04T19:12:04.069Z,99461.69
2023-04-04T19:14:32.512Z,99445.13
2023-04-04T19:17:00.947Z,99455.66
2023-04-04T19:19:29.366Z,99455.75
2023-04-04T19:21:57.831Z,99452.09
2023-04-04T19:24:27.711Z,99454.03
2023-04-04T19:26:56.037Z,99448.09
2023-04-04T19:29:24.445Z,99440.72
2023-04-04T19:31:55.588Z,99445.66
2023-04-04T19:34:24.144Z,99456.25
2023-04-04T19:36:52.462Z,99440.13
2023-04-04T19:39:21.432Z,99432.72
2023-04-04T19:41:51.512Z,99438.53
2023-04-04T19:44:21.460Z,99442.03
2023-04-04T19:46:50.403Z,99433.38
2023-04-04T19:49:19.393Z,99432.00
2023-04-04T19:51:52.494Z,99417.81
2023-04-04T19:54:26.124Z,99427.22
2023-04-04T19:57:01.168Z,99414.44
2023-04-04T20:00:05.315Z,99421.69
2023-04-04T20:02:50.827Z,99428.16
2023-04-04T20:06:04.109Z,99438.53
2023-04-04T20:08:44.395Z,99434.75
2023-04-04T20:11:13.934Z,99438.50
2023-04-04T20:13:44.723Z,99441.19
2023-04-04T20:16:15.241Z,99454.41
2023-04-04T20:18:44.864Z,99442.72
2023-04-04T20:21:15.567Z,99444.09
2023-04-04T20:23:49.552Z,99441.78
2023-04-04T20:26:44.025Z,99431.91
2023-04-04T20:29:16.150Z,99446.63
2023-04-04T20:31:59.367Z,99457.78
2023-04-04T20:34:50.710Z,99466.44
2023-04-04T20:37:23.539Z,99464.31
2023-04-04T20:39:55.289Z,99478.88
2023-04-04T20:42:40.543Z,99470.81
2023-04-04T20:45:42.375Z,99492.91
2023-04-04T20:48:38.077Z,99470.88
2023-04-04T20:51:28.919Z,99477.84
2023-04-04T20:53:58.815Z,99495.03
2023-04-04T20:56:52.609Z,99502.31
2023-04-04T20:59:38.387Z,99508.16
2023-04-04T21:02:20.741Z,99505.31
2023-04-04T21:04:52.148Z,99501.59
2023-04-04T21:07:40.979Z,99501.31
2023-04-04T21:10:25.768Z,99523.06
2023-04-04T21:12:54.766Z,99511.31
2023-04-04T21:15:24.867Z,99528.56
2023-04-04T21:17:54.678Z,99521.41
2023-04-04T21:21:03.176Z,99527.38
2023-04-04T21:23:34.341Z,99523.81
2023-04-04T21:26:04.451Z,99519.88
2023-04-04T21:28:35.298Z,99531.50
2023-04-04T21:31:08.020Z,99535.31
2023-04-04T21:33:38.358Z,99518.06
2023-04-04T21:36:12.466Z,99557.00
2023-04-04T21:38:40.895Z,99536.16
2023-04-04T21:41:17.369Z,99542.63
2023-04-04T21:43:45.760Z,99543.78
2023-04-04T21:46:14.521Z,99544.84
2023-04-04T21:48:49.046Z,99535.84
2023-04-04T21:51:19.394Z,99558.63
2023-04-04T21:53:48.114Z,99567.69
2023-04-04T21:56:17.504Z,99558.88
2023-04-04T21:58:46.235Z,99555.75
2023-04-04T22:01:14.664Z,99564.03
2023-04-04T22:03:44.534Z,99579.84
2023-04-04T22:06:13.138Z,99603.09
2023-04-04T22:08:41.758Z,99608.63
2023-04-04T22:11:13.697Z,99606.69
2023-04-04T22:13:47.255Z,99626.06
2023-04-04T22:16:17.502Z,99620.72
2023-04-04T22:18:52.057Z,99611.13
2023-04-04T22:21:25.985Z,99629.81
2023-04-04T22:23:55.103Z,99621.50
2023-04-04T22:26:32.641Z,99627.56
2023-04-04T22:29:01.728Z,99638.59
2023-04-04T22:31:30.186Z,99640.28
2023-04-04T22:34:00.148Z,99641.81
2023-04-04T22:36:28.540Z,99637.78
2023-04-04T22:38:58.235Z,99630.38
2023-04-04T22:41:28.850Z,99621.84
2023-04-04T22:43:58.038Z,99618.25
2023-04-04T22:46:29.318Z,99615.31
2023-04-04T22:49:06.758Z,99610.25
2023-04-04T22:51:45.673Z,99615.81
2023-04-04T22:54:16.597Z,99601.41
2023-04-04T22:56:45.510Z,99592.31
2023-04-04T22:59:14.253Z,99601.31
2023-04-04T23:01:42.826Z,99585.44
2023-04-04T23:04:12.776Z,99575.09
2023-04-04T23:06:41.381Z,99572.06
2023-04-04T23:09:09.712Z,99572.06
2023-04-04T23:11:39.127Z,99552.25
2023-04-04T23:14:09.227Z,99538.56
2023-04-04T23:16:38.109Z,99526.63
2023-04-04T23:19:06.531Z,99539.38
2023-04-04T23:21:36.775Z,99519.56
2023-04-04T23:24:06.220Z,99497.88
2023-04-04T23:26:35.107Z,99526.41
2023-04-04T23:29:04.386Z,99517.69
2023-04-04T23:31:32.888Z,99517.69
2023-04-04T23:34:01.335Z,99543.03
2023-04-04T23:36:29.757Z,99564.72
2023-04-04T23:38:59.590Z,99498.16
2023-04-04T23:41:28.234Z,99497.34
2023-04-04T23:43:56.686Z,99508.22
2023-04-04T23:46:26.308Z,99518.03
2023-04-04T23:48:54.732Z,99513.25
2023-04-04T23:51:23.651Z,99495.03
2023-04-04T23:53:51.963Z,99525.19
2023-04-04T23:56:21.659Z,99511.41
2023-04-04T23:58:50.235Z,99517.50
